Time;durP1;ratioP1;P1;durP2;ratioP2;P2;SDS_P1;SDS_P2;PMS_P1;PMS_P2;Temp;Humidity;BMP_temperature;BMP_pressure;BME280_temperature;BME280_humidity;BME280_pressure;Samples;Min_cycle;Max_cycle;Signal;HPM_P1;HPM_P2
2022/03/02 00:01:59;;;;;;;12.73;7.08;;;;;;;0.95;49.54;98254.52;1702171;84;21052;-87
2022/03/02 00:04:27;;;;;;;16.80;6.85;;;;;;;0.90;49.53;98253.13;1733141;83;21046;-87
2022/03/02 00:06:53;;;;;;;13.75;6.55;;;;;;;0.92;49.05;98253.59;1678834;84;21426;-87
2022/03/02 00:09:20;;;;;;;16.00;7.37;;;;;;;0.97;48.87;98252.38;1703760;84;21099;-87
2022/03/02 00:11:46;;;;;;;14.20;6.70;;;;;;;0.96;49.09;98244.10;1674147;86;21072;-87
2022/03/02 00:14:13;;;;;;;14.43;7.33;;;;;;;0.89;49.83;98244.44;1703562;84;21003;-85
2022/03/02 00:16:40;;;;;;;14.83;7.08;;;;;;;0.88;49.28;98243.11;1679170;84;21000;-86
2022/03/02 00:19:08;;;;;;;12.30;6.42;;;;;;;0.77;50.34;98238.63;1703128;84;21039;-86
2022/03/02 00:21:35;;;;;;;15.98;6.67;;;;;;;0.76;50.05;98236.88;1674074;86;21020;-86
2022/03/02 00:24:03;;;;;;;16.50;6.95;;;;;;;0.75;50.11;98241.63;1702948;84;21007;-86
2022/03/02 00:26:32;;;;;;;12.70;6.12;;;;;;;0.71;49.85;98233.30;1685831;84;21036;-86
2022/03/02 00:28:59;;;;;;;14.63;6.83;;;;;;;0.69;50.06;98232.42;1708527;83;21026;-85
2022/03/02 00:31:25;;;;;;;14.90;6.42;;;;;;;0.69;50.26;98229.81;1674047;86;21584;-86
2022/03/02 00:33:53;;;;;;;12.82;6.28;;;;;;;0.70;49.98;98228.95;1704022;84;21023;-86
2022/03/02 00:36:20;;;;;;;15.95;6.33;;;;;;;0.68;50.73;98230.67;1681321;84;20992;-85
2022/03/02 00:38:47;;;;;;;14.18;6.03;;;;;;;0.69;50.21;98219.79;1686465;84;21019;-85
2022/03/02 00:41:13;;;;;;;12.15;6.22;;;;;;;0.68;50.32;98219.35;1730408;83;20964;-86
2022/03/02 00:43:40;;;;;;;13.85;6.37;;;;;;;0.67;50.42;98215.00;1704557;84;20985;-85
2022/03/02 00:46:06;;;;;;;13.55;6.85;;;;;;;0.72;49.97;98215.93;1725299;83;21031;-86
2022/03/02 00:48:34;;;;;;;14.05;6.97;;;;;;;0.70;49.85;98208.08;1676441;86;21059;-85
2022/03/02 00:51:01;;;;;;;13.65;6.67;;;;;;;0.71;49.96;98203.30;1701173;84;21062;-85
2022/03/02 00:53:27;;;;;;;9.45;5.65;;;;;;;0.69;50.81;98200.23;1676091;86;20980;-85
2022/03/02 00:55:54;;;;;;;11.70;5.83;;;;;;;0.65;50.95;98193.69;1706492;83;20988;-85
2022/03/02 00:58:21;;;;;;;12.73;6.08;;;;;;;0.64;50.88;98195.85;1704671;84;21410;-85
2022/03/02 01:00:47;;;;;;;11.08;6.00;;;;;;;0.62;50.49;98199.30;1730646;83;21003;-86
2022/03/02 01:03:14;;;;;;;13.28;6.05;;;;;;;0.57;51.17;98195.72;1704638;84;21000;-84
2022/03/02 01:05:40;;;;;;;12.88;5.92;;;;;;;0.52;51.08;98195.67;1728291;83;21015;-85
2022/03/02 01:08:07;;;;;;;10.90;5.80;;;;;;;0.45;51.24;98196.00;1704599;84;20972;-85
2022/03/02 01:10:33;;;;;;;13.75;6.45;;;;;;;0.40;51.29;98191.16;1730355;83;21405;-85
2022/03/02 01:13:00;;;;;;;13.98;6.40;;;;;;;0.41;50.83;98190.29;1704485;84;21008;-85
2022/03/02 01:15:26;;;;;;;13.68;6.03;;;;;;;0.37;50.98;98187.19;1728109;83;21484;-84
2022/03/02 01:17:53;;;;;;;11.53;6.25;;;;;;;0.31;51.03;98188.41;1704690;84;20985;-84
2022/03/02 01:20:20;;;;;;;14.93;6.90;;;;;;;0.28;51.32;98189.69;1730470;83;21055;-84
2022/03/02 01:22:47;;;;;;;12.70;7.03;;;;;;;0.20;51.66;98184.36;1703804;84;22138;-84
2022/03/02 01:25:14;;;;;;;12.43;6.90;;;;;;;0.13;51.91;98179.48;1715450;83;21015;-85
2022/03/02 01:27:40;;;;;;;20.02;7.78;;;;;;;0.06;52.00;98178.92;1675715;86;21024;-84
2022/03/02 01:30:09;;;;;;;14.93;7.60;;;;;;;0.04;51.92;98181.49;1701187;84;21374;-84
2022/03/02 01:32:36;;;;;;;14.63;6.72;;;;;;;0.01;51.96;98173.65;1667647;86;21000;-84
2022/03/02 01:35:03;;;;;;;12.70;7.53;;;;;;;0.01;52.05;98184.48;1684254;84;21072;-84
2022/03/02 01:37:30;;;;;;;15.10;7.17;;;;;;;0.03;52.06;98178.45;1675153;85;21355;-85
2022/03/02 01:39:57;;;;;;;15.13;7.83;;;;;;;0.07;52.28;98178.06;1685109;84;21040;-83
2022/03/02 01:42:25;;;;;;;16.48;7.80;;;;;;;0.08;52.85;98178.53;1701785;84;21008;-85
2022/03/02 01:44:52;;;;;;;15.68;7.58;;;;;;;0.08;52.27;98169.41;1706926;83;21453;-85
2022/03/02 01:47:19;;;;;;;15.50;8.20;;;;;;;0.09;52.21;98173.31;1730831;83;20988;-84
2022/03/02 01:49:47;;;;;;;17.05;8.05;;;;;;;0.11;52.31;98171.63;1730884;83;21016;-84
2022/03/02 01:52:15;;;;;;;16.70;8.25;;;;;;;0.09;52.36;98166.80;1707983;83;20992;-85
2022/03/02 01:54:43;;;;;;;17.87;7.75;;;;;;;0.07;52.28;98169.83;1730902;83;21087;-83
2022/03/02 01:57:10;;;;;;;18.52;8.85;;;;;;;0.05;52.63;98158.52;1703714;83;21005;-83
2022/03/02 01:59:41;;;;;;;19.92;8.48;;;;;;;0.01;52.90;98164.95;1701622;84;21068;-84
2022/03/02 02:02:07;;;;;;;15.65;8.98;;;;;;;-0.04;52.86;98163.14;1701820;84;21012;-83
2022/03/02 02:04:34;;;;;;;16.25;8.53;;;;;;;-0.05;52.97;98156.18;1701716;84;21025;-83
2022/03/02 02:07:00;;;;;;;15.25;8.78;;;;;;;-0.10;52.95;98153.93;1723923;83;21461;-85
2022/03/02 02:09:27;;;;;;;20.65;8.98;;;;;;;-0.17;53.46;98151.66;1730960;83;21039;-83
2022/03/02 02:11:53;;;;;;;18.40;8.50;;;;;;;-0.17;53.74;98154.70;1730884;83;21458;-84
2022/03/02 02:14:20;;;;;;;20.57;8.98;;;;;;;-0.21;54.42;98148.54;1728452;83;21032;-84
2022/03/02 02:16:49;;;;;;;15.18;8.38;;;;;;;-0.23;54.20;98148.06;1730911;83;21445;-84
2022/03/02 02:19:16;;;;;;;18.00;7.92;;;;;;;-0.22;53.60;98154.61;1730885;83;21036;-84
2022/03/02 02:21:46;;;;;;;17.40;7.62;;;;;;;-0.23;53.87;98146.77;1730815;83;21458;-84
2022/03/02 02:24:12;;;;;;;14.90;7.35;;;;;;;-0.28;53.96;98143.66;1728295;83;21521;-85
2022/03/02 02:26:41;;;;;;;13.28;7.28;;;;;;;-0.30;54.80;98136.67;1727083;83;21103;-83
2022/03/02 02:29:10;;;;;;;14.83;7.80;;;;;;;-0.28;54.18;98138.45;1697531;83;21053;-84
2022/03/02 02:31:36;;;;;;;17.27;7.60;;;;;;;-0.27;54.16;98128.50;1688334;84;21066;-82
2022/03/02 02:34:03;;;;;;;13.40;6.70;;;;;;;-0.27;54.59;98128.50;1710352;84;21029;-83
2022/03/02 02:36:29;;;;;;;16.90;7.95;;;;;;;-0.27;54.68;98121.99;1710532;83;20996;-83
2022/03/02 02:38:56;;;;;;;12.18;5.80;;;;;;;-0.25;54.83;98119.83;1724474;83;21017;-82
2022/03/02 02:41:24;;;;;;;11.93;5.72;;;;;;;-0.28;54.80;98120.66;1724361;83;21395;-82
2022/03/02 02:43:51;;;;;;;12.28;5.65;;;;;;;-0.37;54.65;98118.80;1724937;83;21024;-83
2022/03/02 02:46:19;;;;;;;11.80;6.50;;;;;;;-0.41;54.61;98126.09;1687675;83;21063;-82
2022/03/02 02:48:45;;;;;;;11.35;5.95;;;;;;;-0.42;54.84;98117.81;1684547;85;21007;-83
2022/03/02 02:51:12;;;;;;;15.72;6.42;;;;;;;-0.48;54.74;98119.91;1684733;85;21463;-83
2022/03/02 02:53:39;;;;;;;15.25;7.03;;;;;;;-0.50;54.81;98128.55;1706872;83;21044;-83
2022/03/02 02:56:05;;;;;;;14.28;6.42;;;;;;;-0.56;55.17;98123.69;1724315;83;21006;-84
2022/03/02 02:58:32;;;;;;;10.35;5.60;;;;;;;-0.59;55.72;98133.14;1724414;83;21012;-84
2022/03/02 03:00:59;;;;;;;14.55;6.90;;;;;;;-0.61;55.34;98133.56;1724407;83;21040;-84
2022/03/02 03:03:25;;;;;;;14.15;6.65;;;;;;;-0.63;55.43;98123.56;1723604;83;20984;-84
2022/03/02 03:05:52;;;;;;;13.65;5.95;;;;;;;-0.67;55.54;98116.98;1724458;83;21029;-84
2022/03/02 03:08:19;;;;;;;11.75;6.58;;;;;;;-0.64;55.99;98121.78;1724576;83;20985;-84
2022/03/02 03:10:47;;;;;;;15.40;6.05;;;;;;;-0.61;55.66;98113.63;1724383;83;21004;-84
2022/03/02 03:13:15;;;;;;;10.75;5.30;;;;;;;-0.60;55.99;98110.16;1717749;83;20967;-84
2022/03/02 03:15:42;;;;;;;12.20;6.28;;;;;;;-0.56;55.74;98120.20;1725799;83;21498;-84
2022/03/02 03:18:08;;;;;;;18.73;6.20;;;;;;;-0.57;55.98;98112.83;1725807;83;21055;-84
2022/03/02 03:20:36;;;;;;;11.38;6.40;;;;;;;-0.55;55.84;98111.11;1725941;83;21027;-83
2022/03/02 03:23:05;;;;;;;14.25;6.30;;;;;;;-0.51;55.74;98111.18;1725422;83;21000;-83
2022/03/02 03:25:32;;;;;;;10.82;6.28;;;;;;;-0.48;55.65;98115.11;1688176;83;21010;-83
2022/03/02 03:27:58;;;;;;;9.75;5.65;;;;;;;-0.47;55.79;98095.62;1684667;85;20998;-83
2022/03/02 03:30:27;;;;;;;11.48;5.42;;;;;;;-0.41;55.90;98098.76;1684469;85;21429;-84
2022/03/02 03:32:55;;;;;;;11.43;5.60;;;;;;;-0.40;56.43;98107.02;1684454;85;21043;-83
2022/03/02 03:35:25;;;;;;;12.65;6.65;;;;;;;-0.40;55.92;98105.71;1708073;83;21055;-83
2022/03/02 03:37:53;;;;;;;15.60;6.65;;;;;;;-0.37;55.96;98112.28;1722920;82;21078;-84
2022/03/02 03:40:21;;;;;;;15.58;6.10;;;;;;;-0.35;55.88;98105.77;1709812;84;21035;-84
2022/03/02 03:42:50;;;;;;;12.93;6.70;;;;;;;-0.35;55.99;98105.77;1708903;84;21096;-85
2022/03/02 03:45:18;;;;;;;14.38;5.95;;;;;;;-0.35;55.95;98111.87;1735073;82;21102;-84
2022/03/02 03:47:46;;;;;;;10.93;5.97;;;;;;;-0.33;55.83;98105.39;1709564;84;21017;-84
2022/03/02 03:50:14;;;;;;;14.53;6.40;;;;;;;-0.33;55.70;98102.78;1709822;84;21055;-84
2022/03/02 03:52:42;;;;;;;14.50;6.65;;;;;;;-0.38;55.75;98097.48;1709388;84;20992;-85
2022/03/02 03:55:11;;;;;;;12.00;6.00;;;;;;;-0.36;56.15;98091.00;1708136;84;21498;-84
2022/03/02 03:57:38;;;;;;;14.07;7.10;;;;;;;-0.36;55.85;98092.30;1739715;82;20998;-84
2022/03/02 04:00:14;;;;;;;11.45;6.15;;;;;;;-0.33;55.78;98094.52;1732383;83;21442;-83
2022/03/02 04:02:42;;;;;;;15.75;6.92;;;;;;;-0.34;56.29;98091.92;1739844;82;20970;-82
2022/03/02 04:05:09;;;;;;;11.25;5.47;;;;;;;-0.30;56.13;98093.28;1730521;83;21058;-83
2022/03/02 04:07:36;;;;;;;13.85;6.00;;;;;;;-0.29;56.02;98087.66;1739665;82;21472;-83
2022/03/02 04:10:06;;;;;;;11.70;6.87;;;;;;;-0.26;55.93;98085.08;1739824;82;20966;-83
2022/03/02 04:12:32;;;;;;;16.70;8.35;;;;;;;-0.27;57.01;98083.34;1732435;83;21039;-83
2022/03/02 04:14:59;;;;;;;16.90;7.95;;;;;;;-0.35;57.89;98078.02;1738976;82;20973;-84
2022/03/02 04:17:26;;;;;;;11.73;7.22;;;;;;;-0.37;57.10;98074.52;1708825;84;20973;-84
2022/03/02 04:19:53;;;;;;;16.80;7.70;;;;;;;-0.34;56.60;98082.81;1708768;84;21089;-84
2022/03/02 04:22:19;;;;;;;16.17;7.05;;;;;;;-0.32;56.82;98073.28;1701764;84;21039;-84
2022/03/02 04:24:46;;;;;;;12.40;6.37;;;;;;;-0.34;56.91;98073.25;1681045;85;21019;-84
2022/03/02 04:27:13;;;;;;;14.35;6.10;;;;;;;-0.35;56.77;98074.11;1708043;82;21011;-84
2022/03/02 04:29:40;;;;;;;11.45;5.95;;;;;;;-0.35;56.85;98076.70;1682829;84;21020;-83
2022/03/02 04:32:08;;;;;;;13.13;6.03;;;;;;;-0.38;56.80;98075.80;1703532;84;21053;-84
2022/03/02 04:34:35;;;;;;;11.68;5.78;;;;;;;-0.41;57.99;98077.92;1710309;84;21016;-84
2022/03/02 04:37:02;;;;;;;14.90;5.58;;;;;;;-0.44;57.29;98070.05;1721676;82;21093;-83
2022/03/02 04:39:29;;;;;;;11.53;5.33;;;;;;;-0.48;57.51;98066.95;1725186;83;21513;-84
2022/03/02 04:41:55;;;;;;;10.05;5.25;;;;;;;-0.52;57.28;98067.33;1696248;85;21034;-84
2022/03/02 04:44:22;;;;;;;11.83;6.17;;;;;;;-0.52;57.33;98066.03;1702720;83;21020;-84
2022/03/02 04:46:51;;;;;;;12.25;6.00;;;;;;;-0.58;58.27;98064.19;1740636;81;21038;-84
2022/03/02 04:49:19;;;;;;;14.90;5.83;;;;;;;-0.59;57.93;98062.86;1714616;83;21401;-84
2022/03/02 04:51:47;;;;;;;11.60;5.55;;;;;;;-0.60;57.61;98065.91;1739071;82;21055;-84
2022/03/02 04:57:05;;;;;;;16.20;6.37;;;;;;;-0.53;57.11;98062.98;1730454;83;21500;-83
2022/03/02 04:59:32;;;;;;;11.22;5.62;;;;;;;-0.50;57.63;98055.20;1708892;84;21045;-84
2022/03/02 05:02:00;;;;;;;14.60;6.28;;;;;;;-0.55;58.21;98052.54;1732090;83;21086;-84
2022/03/02 05:04:26;;;;;;;15.08;6.37;;;;;;;-0.57;57.97;98052.95;1707098;84;21036;-84
2022/03/02 05:06:53;;;;;;;12.40;6.22;;;;;;;-0.58;57.52;98055.53;1732547;83;20975;-83
2022/03/02 05:09:20;;;;;;;12.55;6.55;;;;;;;-0.57;57.48;98052.06;1739720;82;20942;-84
2022/03/02 05:11:46;;;;;;;16.97;6.95;;;;;;;-0.56;57.24;98051.20;1705811;83;20977;-84
2022/03/02 05:14:13;;;;;;;13.25;6.22;;;;;;;-0.55;57.39;98050.34;1738282;82;21012;-84
2022/03/02 05:16:39;;;;;;;12.75;6.45;;;;;;;-0.59;58.39;98051.14;1709399;84;21027;-83
2022/03/02 05:19:08;;;;;;;20.52;6.97;;;;;;;-0.61;58.75;98047.66;1709538;84;21023;-84
2022/03/02 05:21:36;;;;;;;14.03;6.97;;;;;;;-0.64;58.80;98041.09;1709398;84;21024;-84
2022/03/02 05:24:06;;;;;;;14.95;7.37;;;;;;;-0.65;58.46;98041.53;1714269;83;21064;-85
2022/03/02 05:26:33;;;;;;;16.15;6.58;;;;;;;-0.60;58.83;98038.58;1717177;83;21017;-84
2022/03/02 05:29:00;;;;;;;19.30;7.12;;;;;;;-0.60;58.72;98045.50;1709911;83;21031;-84
2022/03/02 05:31:27;;;;;;;14.83;7.83;;;;;;;-0.57;58.55;98045.55;1709228;84;21044;-84
2022/03/02 05:33:53;;;;;;;16.67;7.28;;;;;;;-0.55;58.08;98046.03;1709541;84;21071;-84
2022/03/02 05:36:19;;;;;;;14.28;7.75;;;;;;;-0.55;58.83;98044.73;1708090;84;21043;-84
2022/03/02 05:38:46;;;;;;;13.78;7.62;;;;;;;-0.53;58.07;98049.97;1707058;84;21383;-84
2022/03/02 05:41:13;;;;;;;15.75;7.12;;;;;;;-0.53;58.43;98046.06;1712529;84;21003;-84
2022/03/02 05:43:39;;;;;;;13.88;7.47;;;;;;;-0.54;58.15;98052.13;1692964;84;21024;-84
2022/03/02 05:46:07;;;;;;;17.42;8.30;;;;;;;-0.54;58.24;98045.17;1710386;83;21031;-84
2022/03/02 05:48:35;;;;;;;18.80;8.55;;;;;;;-0.50;58.00;98045.23;1677419;85;21095;-83
2022/03/02 05:51:01;;;;;;;19.37;8.48;;;;;;;-0.49;58.13;98041.36;1695438;84;20996;-84
2022/03/02 05:53:28;;;;;;;15.60;7.85;;;;;;;-0.47;57.90;98040.94;1724200;83;21450;-84
2022/03/02 05:55:54;;;;;;;18.17;9.25;;;;;;;-0.48;58.25;98048.31;1711750;83;21043;-84
2022/03/02 05:58:21;;;;;;;18.17;9.65;;;;;;;-0.44;58.03;98040.11;1712967;84;20995;-83
2022/03/02 06:00:48;;;;;;;16.65;9.03;;;;;;;-0.39;58.37;98048.87;1716439;83;20996;-84
2022/03/02 06:03:15;;;;;;;16.23;9.43;;;;;;;-0.38;57.86;98051.05;1719162;83;20996;-84
2022/03/02 06:05:42;;;;;;;18.75;9.43;;;;;;;-0.37;57.95;98051.50;1723587;83;21109;-85
2022/03/02 06:08:10;;;;;;;25.70;11.25;;;;;;;-0.37;57.93;98046.29;1717746;83;20952;-83
2022/03/02 06:10:38;;;;;;;25.45;12.20;;;;;;;-0.41;57.96;98053.19;1726113;83;21056;-84
2022/03/02 06:13:07;;;;;;;26.62;12.00;;;;;;;-0.47;59.68;98051.77;1725986;83;20993;-84
2022/03/02 06:15:35;;;;;;;28.65;13.03;;;;;;;-0.50;58.42;98042.63;1714420;83;20985;-84
2022/03/02 06:18:04;;;;;;;36.30;13.15;;;;;;;-0.54;58.82;98045.17;1712920;84;20990;-82
2022/03/02 06:20:33;;;;;;;27.93;12.10;;;;;;;-0.54;58.60;98050.37;1712737;84;21033;-81
2022/03/02 06:23:02;;;;;;;28.87;13.58;;;;;;;-0.50;58.65;98053.05;1712925;84;21045;-85
2022/03/02 06:25:31;;;;;;;26.15;13.00;;;;;;;-0.54;59.96;98054.73;1713044;82;21077;-82
2022/03/02 06:28:00;;;;;;;25.43;12.55;;;;;;;-0.59;60.84;98055.05;1712900;84;20986;-82
2022/03/02 06:30:26;;;;;;;26.07;12.73;;;;;;;-0.59;60.00;98057.23;1712295;84;21008;-80
2022/03/02 06:32:53;;;;;;;26.12;12.93;;;;;;;-0.61;60.54;98061.56;1712137;83;21394;-82
2022/03/02 06:35:20;;;;;;;25.77;13.25;;;;;;;-0.60;60.81;98061.11;1682614;85;21016;-82
2022/03/02 06:37:47;;;;;;;26.55;12.73;;;;;;;-0.58;59.62;98054.22;1714729;81;21088;-82
2022/03/02 06:40:13;;;;;;;25.52;13.45;;;;;;;-0.56;59.35;98058.60;1702164;84;21469;-82
2022/03/02 06:43:00;;;;;;;28.75;13.98;;;;;;;-0.52;59.54;98056.03;1722684;83;21087;-85
2022/03/02 06:45:43;;;;;;;26.33;13.10;;;;;;;-0.53;59.87;98056.47;1685717;84;21170;-86
2022/03/02 06:48:20;;;;;;;26.33;13.35;;;;;;;-0.50;60.87;98061.70;1690577;83;21031;-84
2022/03/02 06:50:53;;;;;;;27.37;12.98;;;;;;;-0.46;59.46;98060.91;1687656;84;20983;-84
2022/03/02 06:53:33;;;;;;;31.02;13.58;;;;;;;-0.44;60.15;98052.72;1685135;84;21035;-87
2022/03/02 06:56:06;;;;;;;25.40;13.53;;;;;;;-0.42;60.68;98058.81;1684083;85;21042;-85
2022/03/02 06:58:44;;;;;;;32.33;13.65;;;;;;;-0.39;60.84;98056.67;1683226;85;21092;-85
2022/03/02 07:01:13;;;;;;;24.30;12.78;;;;;;;-0.37;60.58;98057.59;1698902;84;21034;-85
2022/03/02 07:03:50;;;;;;;31.82;14.23;;;;;;;-0.31;60.17;98055.08;1712908;84;21139;-85
2022/03/02 07:06:18;;;;;;;33.18;14.15;;;;;;;-0.26;60.00;98057.73;1685372;84;21007;-85
2022/03/02 07:08:45;;;;;;;31.60;14.65;;;;;;;-0.20;59.98;98051.30;1686324;84;21019;-85
2022/03/02 07:11:12;;;;;;;24.63;12.78;;;;;;;-0.15;59.93;98056.19;1712716;84;21273;-85
2022/03/02 07:13:39;;;;;;;23.50;11.57;;;;;;;-0.10;59.93;98047.53;1684328;84;21638;-85
2022/03/02 07:16:06;;;;;;;23.40;10.30;;;;;;;-0.04;59.39;98051.09;1683274;85;21058;-85
2022/03/02 07:18:34;;;;;;;18.62;10.13;;;;;;;0.03;59.42;98046.00;1704224;84;21078;-85
2022/03/02 07:21:06;;;;;;;24.25;9.28;;;;;;;0.11;59.08;98045.64;1704319;84;20999;-85
2022/03/02 07:23:35;;;;;;;16.90;8.90;;;;;;;0.22;58.56;98041.47;1704224;84;21039;-84
2022/03/02 07:26:02;;;;;;;13.32;7.33;;;;;;;0.35;57.64;98041.19;1675035;84;21077;-85
2022/03/02 07:28:31;;;;;;;10.88;6.47;;;;;;;0.50;57.26;98043.53;1703909;84;21006;-83
2022/03/02 07:31:00;;;;;;;10.60;5.72;;;;;;;0.64;57.10;98039.34;1650710;86;21492;-83
2022/03/02 07:33:30;;;;;;;10.53;5.97;;;;;;;0.76;56.63;98032.08;1703948;84;21062;-83
2022/03/02 07:35:58;;;;;;;11.28;6.92;;;;;;;0.89;56.64;98028.28;1674381;86;21039;-85
2022/03/02 07:38:26;;;;;;;12.47;6.60;;;;;;;0.98;55.95;98023.56;1715009;82;21393;-85
2022/03/02 07:40:53;;;;;;;16.97;6.30;;;;;;;1.06;55.97;98018.00;1735321;83;21015;-86
2022/03/02 07:43:22;;;;;;;9.80;5.90;;;;;;;1.10;54.71;98017.16;1735338;83;21031;-84
2022/03/02 07:45:50;;;;;;;10.53;5.00;;;;;;;1.18;54.09;98025.95;1735377;83;21523;-86
2022/03/02 07:48:17;;;;;;;9.45;5.80;;;;;;;1.26;54.30;98019.90;1716420;83;20983;-85
2022/03/02 07:50:44;;;;;;;8.93;5.40;;;;;;;1.33;53.53;98020.83;1706294;83;21046;-87
2022/03/02 07:53:16;;;;;;;12.23;6.37;;;;;;;1.44;53.77;98015.25;1706562;84;21030;-86
2022/03/02 07:55:45;;;;;;;14.03;6.37;;;;;;;1.51;53.19;98014.45;1706654;84;21018;-87
2022/03/02 07:58:13;;;;;;;11.53;6.62;;;;;;;1.56;53.41;98003.59;1706613;84;21034;-86
2022/03/02 08:00:39;;;;;;;10.03;6.30;;;;;;;1.68;53.61;97996.69;1727394;83;21062;-88
2022/03/02 08:03:06;;;;;;;11.33;5.97;;;;;;;1.75;53.68;97997.61;1735537;83;21460;-88
2022/03/02 08:05:33;;;;;;;14.23;7.05;;;;;;;1.76;53.09;98001.54;1735540;83;20975;-86
2022/03/02 08:08:01;;;;;;;13.25;6.87;;;;;;;1.77;53.35;97998.47;1713203;84;21148;-88
2022/03/02 08:10:27;;;;;;;11.15;6.97;;;;;;;1.63;53.40;97994.06;1711137;83;21026;-88
2022/03/02 08:12:54;;;;;;;11.35;6.25;;;;;;;1.67;53.68;97990.58;1710552;84;20969;-88
2022/03/02 08:15:22;;;;;;;9.80;6.47;;;;;;;1.69;53.82;97990.17;1735742;83;20984;-88
2022/03/02 08:17:48;;;;;;;13.72;6.90;;;;;;;1.70;53.82;97990.61;1713160;84;20995;-88
2022/03/02 08:20:15;;;;;;;10.40;6.22;;;;;;;1.70;53.89;97987.99;1735786;83;21011;-85
2022/03/02 08:22:48;;;;;;;12.03;6.20;;;;;;;1.70;54.00;97990.61;1722013;81;20979;-86
2022/03/02 08:25:18;;;;;;;11.20;6.53;;;;;;;1.75;54.24;97983.23;1715159;83;21000;-86
2022/03/02 08:27:46;;;;;;;10.70;5.83;;;;;;;1.81;54.16;97981.95;1691749;83;21047;-85
2022/03/02 08:30:15;;;;;;;12.45;6.33;;;;;;;1.84;53.89;97984.59;1725455;83;21055;-86
2022/03/02 08:32:47;;;;;;;14.93;6.70;;;;;;;1.79;53.36;97982.39;1693252;84;20972;-87
2022/03/02 08:35:17;;;;;;;15.45;7.72;;;;;;;1.80;53.55;97977.17;1711373;84;21020;-87
2022/03/02 08:37:44;;;;;;;12.40;6.85;;;;;;;1.86;53.65;97967.63;1711567;84;20990;-86
2022/03/02 08:40:13;;;;;;;12.43;6.72;;;;;;;1.92;53.61;97975.06;1735233;82;21028;-87
2022/03/02 08:42:40;;;;;;;11.08;6.53;;;;;;;1.94;53.70;97975.93;1742241;82;21011;-86
2022/03/02 08:45:08;;;;;;;13.25;6.58;;;;;;;2.04;53.29;97966.82;1742494;82;20962;-87
2022/03/02 08:47:35;;;;;;;10.20;6.30;;;;;;;2.10;53.14;97966.42;1742550;82;21010;-87
2022/03/02 08:50:06;;;;;;;12.33;6.53;;;;;;;2.13;52.58;97959.44;1740679;82;21384;-86
2022/03/02 08:52:34;;;;;;;10.63;6.28;;;;;;;2.22;53.11;97958.17;1741948;82;20962;-88
2022/03/02 08:55:06;;;;;;;13.43;7.12;;;;;;;2.32;53.12;97958.63;1741359;82;21038;-87
2022/03/02 08:57:34;;;;;;;9.05;6.22;;;;;;;2.43;53.20;97951.25;1757118;82;20975;-88
2022/03/02 09:00:06;;;;;;;10.82;6.58;;;;;;;2.55;53.05;97951.29;1756310;82;21083;-88
2022/03/02 09:02:36;;;;;;;11.20;6.40;;;;;;;2.66;52.70;97943.47;1728984;82;21024;-88
2022/03/02 09:05:05;;;;;;;11.25;7.37;;;;;;;2.76;52.72;97941.30;1735144;82;21052;-89
2022/03/02 09:07:33;;;;;;;14.43;7.47;;;;;;;2.90;52.24;97941.30;1731782;82;21087;-89
2022/03/02 09:10:01;;;;;;;11.08;6.58;;;;;;;3.02;51.72;97940.42;1730635;82;21032;-89
2022/03/02 09:12:28;;;;;;;13.60;7.25;;;;;;;3.13;51.90;97938.23;1734093;81;21027;-87
2022/03/02 09:14:57;;;;;;;10.88;6.67;;;;;;;3.22;51.45;97933.42;1735455;82;21031;-87
2022/03/02 09:17:25;;;;;;;10.72;6.65;;;;;;;3.33;51.89;97928.17;1738013;81;21004;-88
2022/03/02 09:19:53;;;;;;;9.20;6.15;;;;;;;3.36;51.15;97933.42;1738524;82;21036;-88
2022/03/02 09:22:23;;;;;;;12.20;7.33;;;;;;;3.40;50.92;97930.78;1736350;82;21124;-88
2022/03/02 09:24:49;;;;;;;11.35;6.80;;;;;;;3.50;51.13;97929.03;1742871;81;20976;-88
2022/03/02 09:27:18;;;;;;;11.33;7.28;;;;;;;3.59;50.99;97930.74;1729188;82;21000;-89
2022/03/02 09:29:47;;;;;;;12.63;6.60;;;;;;;3.65;51.00;97920.23;1703820;83;21048;-86
2022/03/02 09:32:16;;;;;;;11.45;7.58;;;;;;;3.69;49.06;97918.05;1731135;82;21004;-87
2022/03/02 09:34:48;;;;;;;11.65;6.45;;;;;;;3.76;50.37;97908.84;1731434;82;21055;-87
2022/03/02 09:37:16;;;;;;;10.10;6.55;;;;;;;3.85;49.25;97911.44;1732689;82;20980;-86
2022/03/02 09:39:43;;;;;;;12.28;6.47;;;;;;;3.92;49.47;97907.92;1721960;82;21469;-87
2022/03/02 09:42:30;;;;;;;12.68;6.87;;;;;;;4.06;49.37;97903.03;1703040;84;21079;-87
2022/03/02 09:45:07;;;;;;;9.78;6.28;;;;;;;4.04;47.73;97898.25;1702563;84;21465;-89
2022/03/02 09:47:53;;;;;;;9.70;6.20;;;;;;;4.02;47.28;97900.02;1702330;84;21016;-88
2022/03/02 09:50:21;;;;;;;9.03;4.95;;;;;;;4.00;48.17;97892.16;1702137;84;21124;-90
2022/03/02 09:52:49;;;;;;;11.28;5.20;;;;;;;3.96;47.33;97896.97;1702641;83;20989;-88
2022/03/02 09:55:21;;;;;;;10.08;5.33;;;;;;;4.01;48.63;97891.27;1671526;84;21036;-88
2022/03/02 09:57:51;;;;;;;10.90;5.30;;;;;;;4.11;48.86;97890.77;1723705;83;21036;-88
2022/03/02 10:00:20;;;;;;;9.58;5.92;;;;;;;4.13;46.95;97892.07;1724730;83;21102;-89
2022/03/02 10:02:55;;;;;;;16.35;9.15;;;;;;;4.20;48.55;97895.11;1702230;84;21107;-88
2022/03/02 10:05:26;;;;;;;10.10;5.60;;;;;;;4.29;47.75;97883.69;1697820;84;20995;-88
2022/03/02 10:08:05;;;;;;;8.10;4.75;;;;;;;4.35;47.46;97891.51;1702444;84;21054;-88
2022/03/02 10:10:39;;;;;;;6.60;4.05;;;;;;;4.45;47.77;97885.78;1702086;84;21043;-88
2022/03/02 10:13:12;;;;;;;6.12;4.15;;;;;;;4.55;47.45;97883.95;1702804;84;21032;-87
2022/03/02 10:15:42;;;;;;;7.80;3.95;;;;;;;4.64;47.45;97869.91;1718496;83;21022;-88
2022/03/02 10:18:12;;;;;;;7.97;3.62;;;;;;;4.73;47.27;97877.25;1718423;83;21025;-88
2022/03/02 10:20:49;;;;;;;7.37;3.45;;;;;;;4.84;47.30;97873.66;1718488;83;21048;-87
2022/03/02 10:23:34;;;;;;;6.08;3.67;;;;;;;5.01;47.14;97873.08;1701231;83;21076;-87
2022/03/02 10:26:12;;;;;;;5.45;3.12;;;;;;;5.17;46.48;97866.37;1713818;83;20977;-87
2022/03/02 10:29:19;;;;;;;5.35;3.02;;;;;;;5.31;46.50;97862.27;1689704;85;21406;-88
2022/03/02 10:32:09;;;;;;;4.87;3.58;;;;;;;5.49;45.23;97852.45;1690469;83;21468;-88
2022/03/02 10:34:54;;;;;;;6.72;3.22;;;;;;;5.70;44.17;97842.56;1689805;85;21025;-87
2022/03/02 10:37:32;;;;;;;5.58;3.25;;;;;;;5.65;42.96;97841.33;1689788;85;21044;-88
2022/03/02 10:40:18;;;;;;;6.00;3.20;;;;;;;5.61;44.07;97834.36;1697414;84;21011;-88
2022/03/02 10:43:05;;;;;;;5.95;3.67;;;;;;;5.86;45.44;97829.64;1718070;83;20976;-88
2022/03/02 10:45:46;;;;;;;6.10;3.50;;;;;;;6.15;44.90;97823.60;1734796;83;21051;-88
2022/03/02 10:48:19;;;;;;;5.97;3.50;;;;;;;6.35;43.79;97812.76;1739972;82;21039;-87
2022/03/02 10:50:48;;;;;;;4.15;2.92;;;;;;;6.62;43.92;97809.71;1724371;83;21023;-88
2022/03/02 10:53:18;;;;;;;4.40;3.20;;;;;;;6.93;42.45;97806.10;1680053;85;21007;-88
2022/03/02 10:55:49;;;;;;;3.95;2.80;;;;;;;7.31;40.55;97797.52;1703243;84;21086;-88
2022/03/02 10:58:19;;;;;;;5.95;3.30;;;;;;;7.85;43.00;97792.43;1680504;85;21472;-88
2022/03/02 11:00:47;;;;;;;6.62;3.17;;;;;;;8.12;38.93;97787.45;1732899;82;21035;-88
2022/03/02 11:03:15;;;;;;;5.28;3.20;;;;;;;8.31;38.21;97783.91;1704458;84;21000;-88
2022/03/02 11:05:42;;;;;;;6.00;3.47;;;;;;;7.83;37.93;97782.81;1704614;84;21024;-88
2022/03/02 11:08:08;;;;;;;3.90;2.70;;;;;;;7.30;39.10;97797.10;1704338;84;21023;-88
2022/03/02 11:10:40;;;;;;;5.15;2.95;;;;;;;6.66;39.64;97795.17;1703442;84;21031;-88
2022/03/02 11:13:13;;;;;;;4.30;2.72;;;;;;;6.37;40.72;97795.20;1722109;83;21444;-88
2022/03/02 11:15:51;;;;;;;6.28;3.60;;;;;;;6.00;41.16;97787.38;1732266;83;21464;-88
2022/03/02 11:18:39;;;;;;;6.10;3.47;;;;;;;5.97;41.91;97793.14;1732704;83;21046;-89
2022/03/02 11:21:09;;;;;;;8.00;4.35;;;;;;;5.80;42.27;97787.22;1732628;83;21106;-89
2022/03/02 11:23:49;;;;;;;5.53;3.37;;;;;;;5.52;42.95;97783.63;1734199;83;20991;-89
2022/03/02 11:26:24;;;;;;;6.35;3.80;;;;;;;5.42;43.19;97779.38;1735687;83;21031;-89
2022/03/02 11:28:54;;;;;;;6.65;3.90;;;;;;;5.47;43.65;97774.05;1738276;82;21280;-90
2022/03/02 11:31:29;;;;;;;5.60;3.70;;;;;;;5.51;43.77;97777.06;1710538;84;21047;-90
2022/03/02 11:34:16;;;;;;;5.50;3.30;;;;;;;5.58;42.98;97777.43;1709732;84;20996;-87
2022/03/02 11:36:49;;;;;;;6.67;4.03;;;;;;;5.87;42.90;97770.03;1709715;84;21063;-87
2022/03/02 11:39:21;;;;;;;7.80;4.20;;;;;;;6.24;41.78;97762.94;1709330;83;21035;-87
2022/03/02 11:41:56;;;;;;;13.72;6.00;;;;;;;6.45;42.74;97758.22;1696089;85;21063;-89